Etusivu
METAR-TAF:

METAR-TAF

Lentoasemat :

Valence, Ranska

Leveyspiiri: 44-54-58N, Pituuspiiri: 4-58-06E, korkeus merenpinnasta: 160 m

Tämänhetkinen sää

Tämä raportti tehtiin 3 tuntia ja 31 minuuttia sitten, kello 18.00 UTC
Tuuli 11 kn pohjoisesta
Lämpötila 3°C
Kosteus 87%
Ilmanpaine 1014 hPa
Näkyvyys 10 km tai enemmän
Hajanaisia pilviä 3500 ft:n korkeudessa

METAR: LFLU 181800Z AUTO 36011KT 9999 SCT035 03/01 Q1014

Aika: 22:31 (21:31 UTC)


TAF: puuttuu

Säähavainnot ja -ennusteet yli 4000 lentoasemalta (METAR- ja TAF-raportit).

Käytössä olevat sääasemat on merkitty karttaan keltaisilla ja punaisilla pisteillä.

Aseta hiiri pisteen päälle nähdäksesi sääaseman nimen.

Klikkaa sitten nähdäksesi säähavainnot ja -ennusteet.

Kartan vaihtaminen: klikkaa mustalla rastilla varustettuja vihreitä pisteitä, niin voit zoomata sisään; viivalla varustettua vihreää pistettä, niin voit zoomata ulos tai vihreitä nuolia, niin pääset viereisille kartoille.


METAR-TAF: